sensor_id;sensor_type;location;lat;lon;timestamp;P1;durP1;ratioP1;P2;durP2;ratioP2
16478;SDS011;8350;52.316;10.530;2022-10-30T00:00:52;16.02;;;10.15;;
16478;SDS011;8350;52.316;10.530;2022-10-30T00:03:19;11.40;;;9.57;;
16478;SDS011;8350;52.316;10.530;2022-10-30T00:05:46;14.63;;;10.18;;
16478;SDS011;8350;52.316;10.530;2022-10-30T00:08:17;12.80;;;10.15;;
16478;SDS011;8350;52.316;10.530;2022-10-30T00:10:45;15.00;;;10.65;;
16478;SDS011;8350;52.316;10.530;2022-10-30T00:13:14;15.82;;;10.27;;
16478;SDS011;8350;52.316;10.530;2022-10-30T00:15:47;11.48;;;9.68;;
16478;SDS011;8350;52.316;10.530;2022-10-30T00:18:15;13.05;;;9.30;;
16478;SDS011;8350;52.316;10.530;2022-10-30T00:20:42;12.52;;;9.18;;
16478;SDS011;8350;52.316;10.530;2022-10-30T00:23:09;12.07;;;8.15;;
16478;SDS011;8350;52.316;10.530;2022-10-30T00:25:37;12.07;;;9.27;;
16478;SDS011;8350;52.316;10.530;2022-10-30T00:28:04;11.07;;;10.02;;
16478;SDS011;8350;52.316;10.530;2022-10-30T00:30:32;11.85;;;9.80;;
16478;SDS011;8350;52.316;10.530;2022-10-30T00:32:59;15.55;;;9.48;;
16478;SDS011;8350;52.316;10.530;2022-10-30T00:35:26;18.10;;;9.07;;
16478;SDS011;8350;52.316;10.530;2022-10-30T00:37:53;13.90;;;9.32;;
16478;SDS011;8350;52.316;10.530;2022-10-30T00:40:20;10.32;;;7.88;;
16478;SDS011;8350;52.316;10.530;2022-10-30T00:42:49;13.82;;;7.05;;
16478;SDS011;8350;52.316;10.530;2022-10-30T00:45:16;14.35;;;7.80;;
16478;SDS011;8350;52.316;10.530;2022-10-30T00:47:43;15.35;;;7.97;;
16478;SDS011;8350;52.316;10.530;2022-10-30T00:50:13;14.20;;;7.68;;
16478;SDS011;8350;52.316;10.530;2022-10-30T00:52:43;11.88;;;7.70;;
16478;SDS011;8350;52.316;10.530;2022-10-30T00:55:14;10.68;;;7.47;;
16478;SDS011;8350;52.316;10.530;2022-10-30T00:57:44;13.55;;;7.28;;
16478;SDS011;8350;52.316;10.530;2022-10-30T01:00:14;10.80;;;8.32;;
16478;SDS011;8350;52.316;10.530;2022-10-30T01:02:42;15.75;;;8.13;;
16478;SDS011;8350;52.316;10.530;2022-10-30T01:05:09;15.10;;;9.15;;
16478;SDS011;8350;52.316;10.530;2022-10-30T01:07:38;12.65;;;8.48;;
16478;SDS011;8350;52.316;10.530;2022-10-30T01:10:05;12.77;;;8.50;;
16478;SDS011;8350;52.316;10.530;2022-10-30T01:12:38;12.57;;;7.90;;
16478;SDS011;8350;52.316;10.530;2022-10-30T01:15:09;10.95;;;8.52;;
16478;SDS011;8350;52.316;10.530;2022-10-30T01:17:47;11.23;;;7.75;;
16478;SDS011;8350;52.316;10.530;2022-10-30T01:20:38;12.63;;;8.13;;
16478;SDS011;8350;52.316;10.530;2022-10-30T01:23:19;9.68;;;7.43;;
16478;SDS011;8350;52.316;10.530;2022-10-30T01:25:55;13.88;;;8.32;;
16478;SDS011;8350;52.316;10.530;2022-10-30T01:28:34;13.52;;;7.85;;
16478;SDS011;8350;52.316;10.530;2022-10-30T01:31:15;12.15;;;8.35;;
16478;SDS011;8350;52.316;10.530;2022-10-30T01:33:57;12.82;;;8.18;;
16478;SDS011;8350;52.316;10.530;2022-10-30T01:36:35;11.25;;;8.02;;
16478;SDS011;8350;52.316;10.530;2022-10-30T01:39:06;11.88;;;8.18;;
16478;SDS011;8350;52.316;10.530;2022-10-30T01:41:36;13.02;;;8.10;;
16478;SDS011;8350;52.316;10.530;2022-10-30T01:44:04;17.10;;;7.95;;
16478;SDS011;8350;52.316;10.530;2022-10-30T01:46:44;16.92;;;9.15;;
16478;SDS011;8350;52.316;10.530;2022-10-30T01:49:25;12.90;;;8.43;;
16478;SDS011;8350;52.316;10.530;2022-10-30T01:52:02;12.60;;;7.97;;
16478;SDS011;8350;52.316;10.530;2022-10-30T01:54:40;11.00;;;7.72;;
16478;SDS011;8350;52.316;10.530;2022-10-30T01:57:14;11.43;;;7.80;;
16478;SDS011;8350;52.316;10.530;2022-10-30T01:59:46;11.85;;;7.80;;
16478;SDS011;8350;52.316;10.530;2022-10-30T02:02:18;12.05;;;8.10;;
16478;SDS011;8350;52.316;10.530;2022-10-30T02:04:46;11.10;;;7.78;;
16478;SDS011;8350;52.316;10.530;2022-10-30T02:07:13;13.75;;;7.47;;
16478;SDS011;8350;52.316;10.530;2022-10-30T02:09:40;12.00;;;7.28;;
16478;SDS011;8350;52.316;10.530;2022-10-30T02:12:09;13.32;;;7.72;;
16478;SDS011;8350;52.316;10.530;2022-10-30T02:14:38;11.43;;;7.07;;
16478;SDS011;8350;52.316;10.530;2022-10-30T02:17:10;10.10;;;8.13;;
16478;SDS011;8350;52.316;10.530;2022-10-30T02:19:37;9.10;;;6.93;;
16478;SDS011;8350;52.316;10.530;2022-10-30T02:22:05;10.93;;;7.45;;
16478;SDS011;8350;52.316;10.530;2022-10-30T02:24:33;9.18;;;7.18;;
16478;SDS011;8350;52.316;10.530;2022-10-30T02:27:00;10.65;;;6.95;;
16478;SDS011;8350;52.316;10.530;2022-10-30T02:29:27;11.77;;;8.43;;
16478;SDS011;8350;52.316;10.530;2022-10-30T02:31:53;13.38;;;7.50;;
16478;SDS011;8350;52.316;10.530;2022-10-30T02:34:20;9.65;;;7.55;;
16478;SDS011;8350;52.316;10.530;2022-10-30T02:36:47;9.82;;;7.78;;
16478;SDS011;8350;52.316;10.530;2022-10-30T02:39:15;13.00;;;8.93;;
16478;SDS011;8350;52.316;10.530;2022-10-30T02:41:44;10.07;;;8.18;;
16478;SDS011;8350;52.316;10.530;2022-10-30T02:44:11;12.40;;;8.18;;
16478;SDS011;8350;52.316;10.530;2022-10-30T02:46:38;9.45;;;7.90;;
16478;SDS011;8350;52.316;10.530;2022-10-30T02:49:06;8.52;;;7.57;;
16478;SDS011;8350;52.316;10.530;2022-10-30T02:51:35;14.23;;;7.97;;
16478;SDS011;8350;52.316;10.530;2022-10-30T02:54:02;13.65;;;8.63;;
16478;SDS011;8350;52.316;10.530;2022-10-30T02:56:31;11.65;;;7.72;;
16478;SDS011;8350;52.316;10.530;2022-10-30T02:58:57;8.50;;;7.65;;
16478;SDS011;8350;52.316;10.530;2022-10-30T03:01:24;11.13;;;8.00;;
16478;SDS011;8350;52.316;10.530;2022-10-30T03:03:51;13.23;;;9.05;;
16478;SDS011;8350;52.316;10.530;2022-10-30T03:06:18;13.32;;;8.95;;
16478;SDS011;8350;52.316;10.530;2022-10-30T03:08:45;10.55;;;8.48;;
16478;SDS011;8350;52.316;10.530;2022-10-30T03:11:13;12.40;;;8.90;;
16478;SDS011;8350;52.316;10.530;2022-10-30T03:13:42;12.23;;;8.43;;
16478;SDS011;8350;52.316;10.530;2022-10-30T03:16:10;10.02;;;7.63;;
16478;SDS011;8350;52.316;10.530;2022-10-30T03:18:39;11.93;;;8.20;;
16478;SDS011;8350;52.316;10.530;2022-10-30T03:21:10;14.10;;;8.57;;
16478;SDS011;8350;52.316;10.530;2022-10-30T03:23:40;10.73;;;7.90;;
16478;SDS011;8350;52.316;10.530;2022-10-30T03:26:08;10.68;;;7.68;;
16478;SDS011;8350;52.316;10.530;2022-10-30T03:28:35;9.38;;;8.35;;
16478;SDS011;8350;52.316;10.530;2022-10-30T03:31:04;9.88;;;7.90;;
16478;SDS011;8350;52.316;10.530;2022-10-30T03:33:34;14.38;;;7.80;;
16478;SDS011;8350;52.316;10.530;2022-10-30T03:36:02;9.55;;;7.70;;
16478;SDS011;8350;52.316;10.530;2022-10-30T03:38:29;13.18;;;7.60;;
16478;SDS011;8350;52.316;10.530;2022-10-30T03:40:56;11.98;;;7.85;;
16478;SDS011;8350;52.316;10.530;2022-10-30T03:43:24;14.35;;;7.70;;
16478;SDS011;8350;52.316;10.530;2022-10-30T03:45:51;8.57;;;6.68;;
16478;SDS011;8350;52.316;10.530;2022-10-30T03:48:21;10.98;;;7.55;;
16478;SDS011;8350;52.316;10.530;2022-10-30T03:50:50;13.63;;;8.40;;
16478;SDS011;8350;52.316;10.530;2022-10-30T03:53:18;10.57;;;7.00;;
16478;SDS011;8350;52.316;10.530;2022-10-30T03:55:45;8.80;;;6.90;;
16478;SDS011;8350;52.316;10.530;2022-10-30T03:58:12;10.05;;;7.53;;
16478;SDS011;8350;52.316;10.530;2022-10-30T04:00:39;9.68;;;6.82;;
16478;SDS011;8350;52.316;10.530;2022-10-30T04:03:06;11.15;;;7.25;;
16478;SDS011;8350;52.316;10.530;2022-10-30T04:05:36;10.75;;;6.85;;
16478;SDS011;8350;52.316;10.530;2022-10-30T04:08:04;11.25;;;7.00;;
16478;SDS011;8350;52.316;10.530;2022-10-30T04:10:34;9.95;;;7.40;;
16478;SDS011;8350;52.316;10.530;2022-10-30T04:13:01;8.23;;;6.90;;
16478;SDS011;8350;52.316;10.530;2022-10-30T04:15:29;7.80;;;6.20;;
16478;SDS011;8350;52.316;10.530;2022-10-30T04:17:57;9.63;;;7.00;;
16478;SDS011;8350;52.316;10.530;2022-10-30T04:20:24;7.45;;;6.53;;
16478;SDS011;8350;52.316;10.530;2022-10-30T04:22:56;10.95;;;7.05;;
16478;SDS011;8350;52.316;10.530;2022-10-30T04:25:23;10.70;;;6.85;;
16478;SDS011;8350;52.316;10.530;2022-10-30T04:27:54;10.43;;;7.20;;
16478;SDS011;8350;52.316;10.530;2022-10-30T04:30:21;11.88;;;6.72;;
16478;SDS011;8350;52.316;10.530;2022-10-30T04:32:49;13.75;;;6.20;;
16478;SDS011;8350;52.316;10.530;2022-10-30T04:35:17;11.55;;;6.70;;
16478;SDS011;8350;52.316;10.530;2022-10-30T04:37:50;9.15;;;6.70;;
16478;SDS011;8350;52.316;10.530;2022-10-30T04:40:19;10.40;;;6.45;;
16478;SDS011;8350;52.316;10.530;2022-10-30T04:42:45;10.68;;;5.90;;
16478;SDS011;8350;52.316;10.530;2022-10-30T04:45:12;10.10;;;6.15;;
16478;SDS011;8350;52.316;10.530;2022-10-30T04:47:39;10.13;;;6.55;;
16478;SDS011;8350;52.316;10.530;2022-10-30T04:50:07;9.57;;;6.07;;
16478;SDS011;8350;52.316;10.530;2022-10-30T04:52:34;8.93;;;5.57;;
16478;SDS011;8350;52.316;10.530;2022-10-30T04:55:01;8.27;;;5.78;;
16478;SDS011;8350;52.316;10.530;2022-10-30T04:57:29;7.47;;;5.40;;
16478;SDS011;8350;52.316;10.530;2022-10-30T04:59:56;9.30;;;5.60;;
16478;SDS011;8350;52.316;10.530;2022-10-30T05:02:23;9.60;;;5.82;;
16478;SDS011;8350;52.316;10.530;2022-10-30T05:04:50;9.98;;;4.95;;
16478;SDS011;8350;52.316;10.530;2022-10-30T05:07:17;9.57;;;5.60;;
16478;SDS011;8350;52.316;10.530;2022-10-30T05:09:46;9.88;;;4.97;;
16478;SDS011;8350;52.316;10.530;2022-10-30T05:12:13;8.63;;;5.40;;
16478;SDS011;8350;52.316;10.530;2022-10-30T05:14:44;9.27;;;5.85;;
16478;SDS011;8350;52.316;10.530;2022-10-30T05:17:11;9.48;;;5.10;;
16478;SDS011;8350;52.316;10.530;2022-10-30T05:19:41;10.30;;;4.90;;
16478;SDS011;8350;52.316;10.530;2022-10-30T05:22:07;6.40;;;4.70;;
16478;SDS011;8350;52.316;10.530;2022-10-30T05:24:34;8.00;;;5.40;;
16478;SDS011;8350;52.316;10.530;2022-10-30T05:27:01;14.40;;;5.60;;
16478;SDS011;8350;52.316;10.530;2022-10-30T05:29:28;8.20;;;5.35;;
16478;SDS011;8350;52.316;10.530;2022-10-30T05:31:56;15.57;;;5.93;;
16478;SDS011;8350;52.316;10.530;2022-10-30T05:34:23;9.23;;;5.60;;
16478;SDS011;8350;52.316;10.530;2022-10-30T05:36:50;8.73;;;5.40;;
16478;SDS011;8350;52.316;10.530;2022-10-30T05:39:19;9.93;;;5.68;;
16478;SDS011;8350;52.316;10.530;2022-10-30T05:41:46;9.38;;;5.40;;
16478;SDS011;8350;52.316;10.530;2022-10-30T05:44:13;8.40;;;5.45;;
16478;SDS011;8350;52.316;10.530;2022-10-30T05:46:40;11.35;;;5.38;;
16478;SDS011;8350;52.316;10.530;2022-10-30T05:49:09;9.52;;;5.90;;
16478;SDS011;8350;52.316;10.530;2022-10-30T05:51:35;11.73;;;5.78;;
16478;SDS011;8350;52.316;10.530;2022-10-30T05:54:02;8.85;;;4.97;;
16478;SDS011;8350;52.316;10.530;2022-10-30T05:56:29;9.02;;;5.38;;
16478;SDS011;8350;52.316;10.530;2022-10-30T05:58:56;11.15;;;6.15;;
16478;SDS011;8350;52.316;10.530;2022-10-30T06:01:26;9.85;;;5.47;;
16478;SDS011;8350;52.316;10.530;2022-10-30T06:03:54;9.98;;;4.90;;
16478;SDS011;8350;52.316;10.530;2022-10-30T06:06:24;6.95;;;5.10;;
16478;SDS011;8350;52.316;10.530;2022-10-30T06:08:50;10.65;;;5.22;;
16478;SDS011;8350;52.316;10.530;2022-10-30T06:11:17;8.57;;;5.03;;
16478;SDS011;8350;52.316;10.530;2022-10-30T06:13:46;10.05;;;5.68;;
16478;SDS011;8350;52.316;10.530;2022-10-30T06:16:13;9.60;;;5.30;;
16478;SDS011;8350;52.316;10.530;2022-10-30T06:18:42;9.70;;;5.47;;
16478;SDS011;8350;52.316;10.530;2022-10-30T06:21:09;9.57;;;4.70;;
16478;SDS011;8350;52.316;10.530;2022-10-30T06:23:39;8.00;;;5.00;;
16478;SDS011;8350;52.316;10.530;2022-10-30T06:26:06;7.15;;;5.45;;
16478;SDS011;8350;52.316;10.530;2022-10-30T06:28:35;7.22;;;5.43;;
16478;SDS011;8350;52.316;10.530;2022-10-30T06:31:02;9.05;;;5.93;;
16478;SDS011;8350;52.316;10.530;2022-10-30T06:33:29;9.52;;;5.55;;
16478;SDS011;8350;52.316;10.530;2022-10-30T06:35:55;10.75;;;5.72;;
16478;SDS011;8350;52.316;10.530;2022-10-30T06:38:22;8.25;;;5.50;;
16478;SDS011;8350;52.316;10.530;2022-10-30T06:40:50;7.97;;;5.07;;
16478;SDS011;8350;52.316;10.530;2022-10-30T06:43:17;10.13;;;5.60;;
16478;SDS011;8350;52.316;10.530;2022-10-30T06:45:45;9.80;;;5.35;;
16478;SDS011;8350;52.316;10.530;2022-10-30T06:48:12;11.20;;;5.45;;
16478;SDS011;8350;52.316;10.530;2022-10-30T06:50:39;12.38;;;5.60;;
16478;SDS011;8350;52.316;10.530;2022-10-30T06:53:06;9.00;;;5.40;;
16478;SDS011;8350;52.316;10.530;2022-10-30T06:55:33;13.75;;;6.20;;
16478;SDS011;8350;52.316;10.530;2022-10-30T06:58:01;6.65;;;5.53;;
16478;SDS011;8350;52.316;10.530;2022-10-30T07:00:28;7.20;;;5.63;;
16478;SDS011;8350;52.316;10.530;2022-10-30T07:02:55;8.70;;;5.07;;
16478;SDS011;8350;52.316;10.530;2022-10-30T07:05:23;10.93;;;5.38;;
16478;SDS011;8350;52.316;10.530;2022-10-30T07:07:50;12.10;;;5.60;;
16478;SDS011;8350;52.316;10.530;2022-10-30T07:10:17;9.55;;;5.20;;
16478;SDS011;8350;52.316;10.530;2022-10-30T07:12:49;7.70;;;5.63;;
16478;SDS011;8350;52.316;10.530;2022-10-30T07:15:19;8.43;;;5.40;;
16478;SDS011;8350;52.316;10.530;2022-10-30T07:17:53;10.52;;;5.75;;
16478;SDS011;8350;52.316;10.530;2022-10-30T07:20:21;11.65;;;7.00;;
16478;SDS011;8350;52.316;10.530;2022-10-30T07:22:48;8.77;;;5.30;;
16478;SDS011;8350;52.316;10.530;2022-10-30T07:25:15;8.35;;;5.07;;
16478;SDS011;8350;52.316;10.530;2022-10-30T07:27:44;7.95;;;5.30;;
16478;SDS011;8350;52.316;10.530;2022-10-30T07:30:12;9.30;;;5.55;;
16478;SDS011;8350;52.316;10.530;2022-10-30T07:32:41;7.25;;;5.85;;
16478;SDS011;8350;52.316;10.530;2022-10-30T07:35:10;8.05;;;5.43;;
16478;SDS011;8350;52.316;10.530;2022-10-30T07:37:38;8.95;;;5.10;;
16478;SDS011;8350;52.316;10.530;2022-10-30T07:40:05;11.20;;;5.72;;
16478;SDS011;8350;52.316;10.530;2022-10-30T07:42:34;8.77;;;5.28;;
16478;SDS011;8350;52.316;10.530;2022-10-30T07:45:01;9.70;;;5.25;;
16478;SDS011;8350;52.316;10.530;2022-10-30T07:47:27;13.70;;;5.97;;
16478;SDS011;8350;52.316;10.530;2022-10-30T07:50:04;10.52;;;5.65;;
16478;SDS011;8350;52.316;10.530;2022-10-30T07:52:33;9.73;;;5.60;;
16478;SDS011;8350;52.316;10.530;2022-10-30T07:54:59;8.48;;;5.28;;
16478;SDS011;8350;52.316;10.530;2022-10-30T07:57:26;7.43;;;5.50;;
16478;SDS011;8350;52.316;10.530;2022-10-30T07:59:56;8.60;;;5.28;;
16478;SDS011;8350;52.316;10.530;2022-10-30T08:02:23;11.90;;;5.35;;
16478;SDS011;8350;52.316;10.530;2022-10-30T08:04:50;6.97;;;5.43;;
16478;SDS011;8350;52.316;10.530;2022-10-30T08:07:18;6.63;;;5.10;;
16478;SDS011;8350;52.316;10.530;2022-10-30T08:09:45;12.20;;;6.45;;
16478;SDS011;8350;52.316;10.530;2022-10-30T08:12:12;8.57;;;5.13;;
16478;SDS011;8350;52.316;10.530;2022-10-30T08:14:38;7.50;;;4.25;;
16478;SDS011;8350;52.316;10.530;2022-10-30T08:17:05;12.20;;;5.53;;
16478;SDS011;8350;52.316;10.530;2022-10-30T08:19:34;7.28;;;4.50;;
16478;SDS011;8350;52.316;10.530;2022-10-30T08:22:01;8.88;;;5.20;;
16478;SDS011;8350;52.316;10.530;2022-10-30T08:24:34;12.10;;;5.75;;
16478;SDS011;8350;52.316;10.530;2022-10-30T08:27:00;7.22;;;4.68;;
16478;SDS011;8350;52.316;10.530;2022-10-30T08:29:28;6.93;;;4.60;;
16478;SDS011;8350;52.316;10.530;2022-10-30T08:31:55;9.07;;;5.07;;
16478;SDS011;8350;52.316;10.530;2022-10-30T08:34:22;9.90;;;4.45;;
16478;SDS011;8350;52.316;10.530;2022-10-30T08:36:50;10.27;;;4.70;;
16478;SDS011;8350;52.316;10.530;2022-10-30T08:39:17;9.75;;;4.68;;
16478;SDS011;8350;52.316;10.530;2022-10-30T08:41:46;6.60;;;4.47;;
16478;SDS011;8350;52.316;10.530;2022-10-30T08:44:13;11.95;;;5.22;;
16478;SDS011;8350;52.316;10.530;2022-10-30T08:46:40;11.23;;;4.97;;
16478;SDS011;8350;52.316;10.530;2022-10-30T08:49:06;9.80;;;4.15;;
16478;SDS011;8350;52.316;10.530;2022-10-30T08:51:34;7.72;;;4.88;;
16478;SDS011;8350;52.316;10.530;2022-10-30T08:54:01;9.90;;;4.97;;
16478;SDS011;8350;52.316;10.530;2022-10-30T08:56:28;7.60;;;4.80;;
16478;SDS011;8350;52.316;10.530;2022-10-30T08:58:56;8.68;;;5.05;;
16478;SDS011;8350;52.316;10.530;2022-10-30T09:01:23;9.35;;;4.82;;
16478;SDS011;8350;52.316;10.530;2022-10-30T09:03:50;12.70;;;4.53;;
16478;SDS011;8350;52.316;10.530;2022-10-30T09:06:17;9.00;;;5.10;;
16478;SDS011;8350;52.316;10.530;2022-10-30T09:08:44;6.93;;;4.32;;
16478;SDS011;8350;52.316;10.530;2022-10-30T09:11:11;9.48;;;4.25;;
16478;SDS011;8350;52.316;10.530;2022-10-30T09:13:38;7.00;;;4.40;;
16478;SDS011;8350;52.316;10.530;2022-10-30T09:16:08;11.90;;;5.07;;
16478;SDS011;8350;52.316;10.530;2022-10-30T09:18:38;11.55;;;4.68;;
16478;SDS011;8350;52.316;10.530;2022-10-30T09:21:05;12.75;;;5.15;;
16478;SDS011;8350;52.316;10.530;2022-10-30T09:23:31;11.27;;;4.90;;
16478;SDS011;8350;52.316;10.530;2022-10-30T09:25:58;9.15;;;4.72;;
16478;SDS011;8350;52.316;10.530;2022-10-30T09:28:25;7.40;;;4.45;;
16478;SDS011;8350;52.316;10.530;2022-10-30T09:30:52;12.90;;;4.47;;
16478;SDS011;8350;52.316;10.530;2022-10-30T09:33:22;9.18;;;4.25;;
16478;SDS011;8350;52.316;10.530;2022-10-30T09:35:49;8.50;;;4.32;;
16478;SDS011;8350;52.316;10.530;2022-10-30T09:38:16;9.75;;;4.10;;
16478;SDS011;8350;52.316;10.530;2022-10-30T09:40:51;11.00;;;4.53;;
16478;SDS011;8350;52.316;10.530;2022-10-30T09:43:37;7.50;;;4.47;;
16478;SDS011;8350;52.316;10.530;2022-10-30T09:46:22;8.57;;;4.43;;
16478;SDS011;8350;52.316;10.530;2022-10-30T09:52:16;7.07;;;4.28;;
16478;SDS011;8350;52.316;10.530;2022-10-30T09:54:54;7.53;;;4.22;;
16478;SDS011;8350;52.316;10.530;2022-10-30T09:57:28;9.18;;;4.68;;
16478;SDS011;8350;52.316;10.530;2022-10-30T10:00:02;9.85;;;4.60;;
16478;SDS011;8350;52.316;10.530;2022-10-30T10:02:34;10.75;;;4.50;;
16478;SDS011;8350;52.316;10.530;2022-10-30T10:05:10;9.65;;;4.40;;
16478;SDS011;8350;52.316;10.530;2022-10-30T10:07:44;7.65;;;3.95;;
16478;SDS011;8350;52.316;10.530;2022-10-30T10:10:15;7.45;;;4.25;;
16478;SDS011;8350;52.316;10.530;2022-10-30T10:12:46;7.68;;;4.10;;
16478;SDS011;8350;52.316;10.530;2022-10-30T10:18:06;6.25;;;4.32;;
16478;SDS011;8350;52.316;10.530;2022-10-30T10:20:42;10.50;;;4.30;;
16478;SDS011;8350;52.316;10.530;2022-10-30T10:23:14;6.75;;;4.32;;
16478;SDS011;8350;52.316;10.530;2022-10-30T10:25:46;9.73;;;5.07;;
16478;SDS011;8350;52.316;10.530;2022-10-30T10:28:24;9.13;;;4.35;;
16478;SDS011;8350;52.316;10.530;2022-10-30T10:31:06;9.93;;;4.47;;
16478;SDS011;8350;52.316;10.530;2022-10-30T10:33:47;11.48;;;4.68;;
16478;SDS011;8350;52.316;10.530;2022-10-30T10:36:28;7.35;;;4.18;;
16478;SDS011;8350;52.316;10.530;2022-10-30T10:39:07;7.97;;;4.07;;
16478;SDS011;8350;52.316;10.530;2022-10-30T10:41:58;8.75;;;4.38;;
16478;SDS011;8350;52.316;10.530;2022-10-30T10:44:38;6.97;;;4.20;;
16478;SDS011;8350;52.316;10.530;2022-10-30T10:47:17;9.15;;;4.63;;
16478;SDS011;8350;52.316;10.530;2022-10-30T10:50:01;8.63;;;3.78;;
16478;SDS011;8350;52.316;10.530;2022-10-30T10:52:39;9.75;;;4.20;;
16478;SDS011;8350;52.316;10.530;2022-10-30T10:55:12;7.45;;;3.95;;
16478;SDS011;8350;52.316;10.530;2022-10-30T10:57:41;7.28;;;4.00;;
16478;SDS011;8350;52.316;10.530;2022-10-30T11:00:13;7.90;;;4.22;;
16478;SDS011;8350;52.316;10.530;2022-10-30T11:02:42;9.48;;;4.70;;
16478;SDS011;8350;52.316;10.530;2022-10-30T11:05:18;9.13;;;4.30;;
16478;SDS011;8350;52.316;10.530;2022-10-30T11:07:52;7.63;;;4.00;;
16478;SDS011;8350;52.316;10.530;2022-10-30T11:10:24;5.88;;;3.50;;
16478;SDS011;8350;52.316;10.530;2022-10-30T11:12:51;7.47;;;4.30;;
16478;SDS011;8350;52.316;10.530;2022-10-30T11:15:30;7.43;;;4.00;;
16478;SDS011;8350;52.316;10.530;2022-10-30T11:18:03;8.45;;;3.95;;
16478;SDS011;8350;52.316;10.530;2022-10-30T11:20:35;11.00;;;4.47;;
16478;SDS011;8350;52.316;10.530;2022-10-30T11:28:54;6.85;;;3.78;;
16478;SDS011;8350;52.316;10.530;2022-10-30T11:31:24;6.95;;;4.45;;
16478;SDS011;8350;52.316;10.530;2022-10-30T11:33:58;9.75;;;4.55;;
16478;SDS011;8350;52.316;10.530;2022-10-30T11:36:57;8.52;;;3.97;;
16478;SDS011;8350;52.316;10.530;2022-10-30T11:39:30;10.18;;;4.55;;
16478;SDS011;8350;52.316;10.530;2022-10-30T11:42:00;8.18;;;4.07;;
16478;SDS011;8350;52.316;10.530;2022-10-30T11:44:33;9.35;;;4.60;;
16478;SDS011;8350;52.316;10.530;2022-10-30T11:47:02;9.65;;;3.90;;
16478;SDS011;8350;52.316;10.530;2022-10-30T11:49:33;9.95;;;3.95;;
16478;SDS011;8350;52.316;10.530;2022-10-30T11:52:09;6.72;;;4.15;;
16478;SDS011;8350;52.316;10.530;2022-10-30T11:54:39;11.15;;;4.75;;
16478;SDS011;8350;52.316;10.530;2022-10-30T11:57:20;12.38;;;4.22;;
16478;SDS011;8350;52.316;10.530;2022-10-30T11:59:56;9.90;;;4.22;;
16478;SDS011;8350;52.316;10.530;2022-10-30T12:02:24;10.85;;;4.35;;
16478;SDS011;8350;52.316;10.530;2022-10-30T12:04:57;8.13;;;4.05;;
16478;SDS011;8350;52.316;10.530;2022-10-30T12:07:29;8.93;;;3.92;;
16478;SDS011;8350;52.316;10.530;2022-10-30T12:10:01;7.22;;;4.22;;
16478;SDS011;8350;52.316;10.530;2022-10-30T12:12:32;7.85;;;4.18;;
16478;SDS011;8350;52.316;10.530;2022-10-30T12:15:07;7.97;;;4.13;;
16478;SDS011;8350;52.316;10.530;2022-10-30T12:17:51;10.43;;;4.03;;
16478;SDS011;8350;52.316;10.530;2022-10-30T12:20:22;10.07;;;4.03;;
16478;SDS011;8350;52.316;10.530;2022-10-30T12:22:51;10.77;;;4.20;;
16478;SDS011;8350;52.316;10.530;2022-10-30T12:25:21;13.00;;;4.88;;
16478;SDS011;8350;52.316;10.530;2022-10-30T12:27:50;8.40;;;4.50;;
16478;SDS011;8350;52.316;10.530;2022-10-30T12:30:24;8.45;;;3.97;;
16478;SDS011;8350;52.316;10.530;2022-10-30T12:32:57;10.20;;;4.57;;
16478;SDS011;8350;52.316;10.530;2022-10-30T12:35:39;9.00;;;4.18;;
16478;SDS011;8350;52.316;10.530;2022-10-30T12:38:14;9.98;;;4.07;;
16478;SDS011;8350;52.316;10.530;2022-10-30T12:40:53;7.15;;;3.78;;
16478;SDS011;8350;52.316;10.530;2022-10-30T12:43:31;7.53;;;4.13;;
16478;SDS011;8350;52.316;10.530;2022-10-30T12:46:07;10.43;;;4.43;;
16478;SDS011;8350;52.316;10.530;2022-10-30T12:48:46;7.60;;;3.83;;
16478;SDS011;8350;52.316;10.530;2022-10-30T12:51:22;8.10;;;4.40;;
16478;SDS011;8350;52.316;10.530;2022-10-30T12:53:56;6.35;;;4.22;;
16478;SDS011;8350;52.316;10.530;2022-10-30T12:56:34;7.85;;;4.00;;
16478;SDS011;8350;52.316;10.530;2022-10-30T12:59:13;8.27;;;4.35;;
16478;SDS011;8350;52.316;10.530;2022-10-30T13:01:56;10.45;;;4.22;;
16478;SDS011;8350;52.316;10.530;2022-10-30T13:04:32;9.60;;;4.20;;
16478;SDS011;8350;52.316;10.530;2022-10-30T13:07:09;7.63;;;3.83;;
16478;SDS011;8350;52.316;10.530;2022-10-30T13:09:45;8.40;;;3.97;;
16478;SDS011;8350;52.316;10.530;2022-10-30T13:12:26;7.13;;;3.92;;
16478;SDS011;8350;52.316;10.530;2022-10-30T13:14:58;8.15;;;3.65;;
16478;SDS011;8350;52.316;10.530;2022-10-30T13:17:35;9.27;;;3.67;;
16478;SDS011;8350;52.316;10.530;2022-10-30T13:20:04;11.20;;;4.63;;
16478;SDS011;8350;52.316;10.530;2022-10-30T13:22:41;7.57;;;3.83;;
16478;SDS011;8350;52.316;10.530;2022-10-30T13:25:20;8.13;;;4.25;;
16478;SDS011;8350;52.316;10.530;2022-10-30T13:27:56;11.70;;;5.05;;
16478;SDS011;8350;52.316;10.530;2022-10-30T13:30:33;8.18;;;4.72;;
16478;SDS011;8350;52.316;10.530;2022-10-30T13:33:09;9.80;;;4.80;;
16478;SDS011;8350;52.316;10.530;2022-10-30T13:35:41;7.20;;;4.53;;
16478;SDS011;8350;52.316;10.530;2022-10-30T13:38:25;9.38;;;4.40;;
16478;SDS011;8350;52.316;10.530;2022-10-30T13:41:06;11.40;;;4.20;;
16478;SDS011;8350;52.316;10.530;2022-10-30T13:43:44;9.00;;;3.97;;
16478;SDS011;8350;52.316;10.530;2022-10-30T13:46:26;7.45;;;4.10;;
16478;SDS011;8350;52.316;10.530;2022-10-30T13:51:58;10.52;;;5.10;;
16478;SDS011;8350;52.316;10.530;2022-10-30T13:54:34;11.65;;;4.45;;
16478;SDS011;8350;52.316;10.530;2022-10-30T13:57:05;13.77;;;4.32;;
16478;SDS011;8350;52.316;10.530;2022-10-30T13:59:51;7.80;;;4.32;;
16478;SDS011;8350;52.316;10.530;2022-10-30T14:02:31;10.60;;;4.40;;
16478;SDS011;8350;52.316;10.530;2022-10-30T14:05:34;8.75;;;4.35;;
16478;SDS011;8350;52.316;10.530;2022-10-30T14:08:08;10.88;;;4.93;;
16478;SDS011;8350;52.316;10.530;2022-10-30T14:10:45;9.25;;;4.47;;
16478;SDS011;8350;52.316;10.530;2022-10-30T14:13:14;9.07;;;5.05;;
16478;SDS011;8350;52.316;10.530;2022-10-30T14:15:56;9.00;;;4.60;;
16478;SDS011;8350;52.316;10.530;2022-10-30T14:18:28;10.45;;;4.68;;
16478;SDS011;8350;52.316;10.530;2022-10-30T14:24:13;8.52;;;4.38;;
16478;SDS011;8350;52.316;10.530;2022-10-30T14:26:46;7.53;;;4.07;;
16478;SDS011;8350;52.316;10.530;2022-10-30T14:35:32;7.22;;;4.45;;
16478;SDS011;8350;52.316;10.530;2022-10-30T14:38:23;6.88;;;4.35;;
16478;SDS011;8350;52.316;10.530;2022-10-30T14:50:20;7.63;;;4.47;;
16478;SDS011;8350;52.316;10.530;2022-10-30T14:53:01;7.53;;;4.25;;
16478;SDS011;8350;52.316;10.530;2022-10-30T14:55:47;7.80;;;4.78;;
16478;SDS011;8350;52.316;10.530;2022-10-30T14:58:22;6.72;;;5.43;;
16478;SDS011;8350;52.316;10.530;2022-10-30T15:00:52;12.38;;;6.20;;
16478;SDS011;8350;52.316;10.530;2022-10-30T15:03:45;8.45;;;5.70;;
16478;SDS011;8350;52.316;10.530;2022-10-30T15:06:20;10.38;;;5.40;;
16478;SDS011;8350;52.316;10.530;2022-10-30T15:09:12;8.23;;;5.32;;
16478;SDS011;8350;52.316;10.530;2022-10-30T15:11:53;8.38;;;4.82;;
16478;SDS011;8350;52.316;10.530;2022-10-30T15:14:31;8.95;;;5.57;;
16478;SDS011;8350;52.316;10.530;2022-10-30T15:17:01;9.93;;;4.32;;
16478;SDS011;8350;52.316;10.530;2022-10-30T15:19:28;8.45;;;5.18;;
16478;SDS011;8350;52.316;10.530;2022-10-30T15:21:58;10.20;;;4.97;;
16478;SDS011;8350;52.316;10.530;2022-10-30T15:24:27;8.00;;;4.95;;
16478;SDS011;8350;52.316;10.530;2022-10-30T15:26:56;12.52;;;5.20;;
16478;SDS011;8350;52.316;10.530;2022-10-30T15:29:26;7.80;;;5.28;;
16478;SDS011;8350;52.316;10.530;2022-10-30T15:31:56;9.05;;;4.82;;
16478;SDS011;8350;52.316;10.530;2022-10-30T15:34:25;7.55;;;4.90;;
16478;SDS011;8350;52.316;10.530;2022-10-30T15:36:53;8.50;;;5.38;;